createdAt,value
2022-11-16T00:00:49.468Z,52.23
2022-11-16T00:03:16.568Z,52.04
2022-11-16T00:05:43.648Z,52.05
2022-11-16T00:08:10.690Z,52.08
2022-11-16T00:10:39.248Z,52.23
2022-11-16T00:13:06.307Z,52.18
2022-11-16T00:15:33.366Z,52.46
2022-11-16T00:18:00.389Z,52.43
2022-11-16T00:20:27.386Z,51.91
2022-11-16T00:22:54.466Z,51.91
2022-11-16T00:25:21.468Z,51.87
2022-11-16T00:27:51.008Z,51.76
2022-11-16T00:30:18.086Z,51.79
2022-11-16T00:32:45.087Z,51.53
2022-11-16T00:35:12.148Z,51.74
2022-11-16T00:37:39.248Z,52.21
2022-11-16T00:40:08.007Z,52.04
2022-11-16T00:42:35.089Z,51.09
2022-11-16T00:45:03.967Z,50.46
2022-11-16T00:47:30.968Z,50.00
2022-11-16T00:49:58.547Z,50.05
2022-11-16T00:52:25.667Z,50.64
2022-11-16T00:54:52.866Z,50.28
2022-11-16T00:57:20.068Z,50.47
2022-11-16T00:59:47.208Z,49.68
2022-11-16T01:02:15.966Z,49.87
2022-11-16T01:04:43.095Z,49.81
2022-11-16T01:07:10.297Z,50.23
2022-11-16T01:09:37.386Z,50.67
2022-11-16T01:12:05.108Z,50.75
2022-11-16T01:14:32.189Z,50.58
2022-11-16T01:16:59.307Z,50.47
2022-11-16T01:19:27.828Z,50.82
2022-11-16T01:21:55.092Z,51.12
2022-11-16T01:24:23.626Z,51.10
2022-11-16T01:26:50.768Z,51.82
2022-11-16T01:29:18.028Z,51.66
2022-11-16T01:31:45.109Z,51.41
2022-11-16T01:34:13.446Z,50.98
2022-11-16T01:36:42.028Z,51.19
2022-11-16T01:39:11.908Z,50.64
2022-11-16T01:41:39.587Z,49.76
2022-11-16T01:44:45.186Z,49.08
2022-11-16T01:47:15.426Z,50.44
2022-11-16T01:49:47.766Z,49.78
2022-11-16T01:52:21.787Z,50.39
2022-11-16T01:54:53.667Z,50.15
2022-11-16T01:57:26.066Z,50.49
2022-11-16T01:59:58.128Z,51.02
2022-11-16T02:02:25.347Z,51.02
2022-11-16T02:04:55.092Z,51.36
2022-11-16T02:07:40.567Z,51.56
2022-11-16T02:10:24.347Z,51.99
2022-11-16T02:13:15.565Z,52.04
2022-11-16T02:15:48.014Z,52.67
2022-11-16T02:18:30.311Z,53.67
2022-11-16T02:21:14.787Z,55.04
2022-11-16T02:24:14.467Z,55.20
2022-11-16T02:27:20.206Z,54.89
2022-11-16T02:29:53.369Z,54.09
2022-11-16T02:32:30.286Z,54.01
2022-11-16T02:35:05.385Z,53.87
2022-11-16T02:37:39.805Z,53.24
2022-11-16T02:40:13.005Z,52.91
2022-11-16T02:42:47.847Z,52.41
2022-11-16T02:45:22.404Z,57.66
2022-11-16T02:47:53.464Z,50.98
2022-11-16T02:50:23.984Z,50.93
2022-11-16T02:52:51.009Z,57.71
2022-11-16T02:55:18.445Z,57.13
2022-11-16T02:57:51.885Z,55.66
2022-11-16T03:00:24.048Z,54.66
2022-11-16T03:03:07.622Z,52.26
2022-11-16T03:05:40.696Z,52.38
2022-11-16T03:08:17.481Z,51.20
2022-11-16T03:10:50.558Z,51.17
2022-11-16T03:13:21.858Z,49.12
2022-11-16T03:15:53.178Z,50.22
2022-11-16T03:18:26.657Z,49.93
2022-11-16T03:21:02.210Z,49.64
2022-11-16T03:23:29.878Z,49.95
2022-11-16T03:26:00.276Z,49.75
2022-11-16T03:28:36.779Z,49.24
2022-11-16T03:31:13.438Z,47.77
2022-11-16T03:33:48.719Z,48.93
2022-11-16T03:36:22.797Z,49.01
2022-11-16T03:38:52.961Z,48.67
2022-11-16T03:41:24.577Z,49.06
2022-11-16T03:43:55.198Z,49.25
2022-11-16T03:46:24.559Z,49.62
2022-11-16T03:48:58.316Z,49.12
2022-11-16T03:51:26.337Z,49.30
2022-11-16T03:53:53.457Z,49.29
2022-11-16T03:56:20.658Z,48.76
2022-11-16T03:58:47.763Z,48.90
2022-11-16T04:01:14.905Z,48.98
2022-11-16T04:03:43.497Z,48.39
2022-11-16T04:06:11.217Z,48.86
2022-11-16T04:08:38.237Z,48.66
2022-11-16T04:11:05.978Z,48.80
2022-11-16T04:13:34.899Z,49.09
2022-11-16T04:16:01.925Z,48.36
2022-11-16T04:18:29.061Z,48.98
2022-11-16T04:20:58.046Z,48.37
2022-11-16T04:23:25.337Z,49.18
2022-11-16T04:25:52.847Z,48.75
2022-11-16T04:28:25.786Z,49.14
2022-11-16T04:30:57.617Z,48.35
2022-11-16T04:33:25.121Z,48.65
2022-11-16T04:35:52.126Z,48.38
2022-11-16T04:38:20.886Z,48.54
2022-11-16T04:40:48.167Z,48.33
2022-11-16T04:43:15.333Z,48.47
2022-11-16T04:45:42.489Z,48.44
2022-11-16T04:48:10.151Z,48.62
2022-11-16T04:50:37.757Z,48.56
2022-11-16T04:53:06.373Z,48.63
2022-11-16T04:55:35.487Z,48.73
2022-11-16T04:58:03.130Z,48.33
2022-11-16T05:00:30.884Z,48.61
2022-11-16T05:03:01.503Z,48.05
2022-11-16T05:05:29.004Z,48.51
2022-11-16T05:07:56.285Z,48.96
2022-11-16T05:10:23.405Z,48.33
2022-11-16T05:12:52.065Z,48.27
2022-11-16T05:15:19.081Z,48.74
2022-11-16T05:17:46.200Z,48.84
2022-11-16T05:20:13.271Z,48.05
2022-11-16T05:22:40.345Z,48.32
2022-11-16T05:25:09.546Z,48.51
2022-11-16T05:27:37.190Z,48.32
2022-11-16T05:30:07.110Z,48.23
2022-11-16T05:32:34.252Z,48.35
2022-11-16T05:35:01.324Z,48.71
2022-11-16T05:37:28.581Z,48.19
2022-11-16T05:39:55.682Z,48.38
2022-11-16T05:42:23.403Z,48.25
2022-11-16T05:44:50.563Z,47.89
2022-11-16T05:47:19.127Z,48.43
2022-11-16T05:49:46.152Z,48.23
2022-11-16T05:52:13.272Z,48.16
2022-11-16T05:54:40.424Z,48.19
2022-11-16T05:57:07.658Z,47.93
2022-11-16T05:59:34.812Z,48.18
2022-11-16T06:02:01.927Z,48.11
2022-11-16T06:04:30.520Z,48.11
2022-11-16T06:06:57.587Z,48.20
2022-11-16T06:09:24.685Z,47.71
2022-11-16T06:11:52.097Z,48.00
2022-11-16T06:14:19.254Z,47.93
2022-11-16T06:16:46.343Z,47.93
2022-11-16T06:19:13.369Z,48.22
2022-11-16T06:21:41.984Z,48.42
2022-11-16T06:24:09.333Z,48.10
2022-11-16T06:26:36.678Z,48.50
2022-11-16T06:29:04.535Z,47.95
2022-11-16T06:31:32.413Z,47.95
2022-11-16T06:33:59.502Z,47.62
2022-11-16T06:36:26.616Z,47.62
2022-11-16T06:38:55.168Z,47.73
2022-11-16T06:41:22.359Z,47.97
2022-11-16T06:43:49.467Z,48.08
2022-11-16T06:46:16.651Z,48.35
2022-11-16T06:48:44.041Z,48.24
2022-11-16T06:51:11.440Z,48.35
2022-11-16T06:53:38.487Z,48.77
2022-11-16T06:56:08.173Z,49.14
2022-11-16T06:58:35.593Z,47.39
2022-11-16T07:01:07.253Z,47.21
2022-11-16T07:03:34.347Z,47.68
2022-11-16T07:06:06.910Z,47.05
2022-11-16T07:08:34.200Z,46.01
2022-11-16T07:11:08.531Z,46.85
2022-11-16T07:13:37.404Z,46.95
2022-11-16T07:16:06.767Z,46.37
2022-11-16T07:18:35.607Z,44.79
2022-11-16T07:21:06.527Z,44.25
2022-11-16T07:23:33.971Z,43.78
2022-11-16T07:26:01.851Z,43.72
2022-11-16T07:28:31.007Z,43.74
2022-11-16T07:31:01.369Z,43.57
2022-11-16T07:33:29.110Z,42.97
2022-11-16T07:36:01.490Z,42.92
2022-11-16T07:38:29.169Z,42.53
2022-11-16T07:41:00.062Z,41.06
2022-11-16T07:43:30.692Z,41.07
2022-11-16T07:46:30.252Z,41.85
2022-11-16T07:48:48.672Z,42.56
2022-11-16T07:51:17.502Z,42.73
2022-11-16T07:53:45.810Z,43.86
2022-11-16T07:56:13.465Z,44.67
2022-11-16T07:58:42.091Z,44.77
2022-11-16T08:01:11.153Z,45.05
2022-11-16T08:03:39.869Z,45.32
2022-11-16T08:06:11.284Z,46.08
2022-11-16T08:08:38.481Z,46.25
2022-11-16T08:11:07.882Z,45.75
2022-11-16T08:13:37.050Z,45.58
2022-11-16T08:16:08.045Z,45.98
2022-11-16T08:18:36.762Z,46.27
2022-11-16T08:21:05.098Z,46.40
2022-11-16T08:23:33.257Z,45.36
2022-11-16T08:26:01.878Z,45.66
2022-11-16T08:28:30.511Z,46.12
2022-11-16T08:30:59.204Z,46.29
2022-11-16T08:33:29.457Z,46.21
2022-11-16T08:35:56.537Z,45.54
2022-11-16T08:38:23.601Z,46.46
2022-11-16T08:43:35.161Z,46.87
2022-11-16T08:46:02.352Z,46.70
2022-11-16T08:48:31.032Z,46.27
2022-11-16T08:51:16.884Z,46.32
2022-11-16T08:53:45.096Z,46.45
2022-11-16T08:56:12.816Z,45.93
2022-11-16T08:58:41.652Z,46.19
2022-11-16T09:01:09.861Z,46.58
2022-11-16T09:03:38.943Z,45.94
2022-11-16T09:06:07.900Z,45.93
2022-11-16T09:08:37.776Z,45.19
2022-11-16T09:11:05.812Z,43.75
2022-11-16T09:13:33.158Z,42.69
2022-11-16T09:16:01.381Z,41.73
2022-11-16T09:18:29.627Z,41.72
2022-11-16T09:20:58.224Z,41.45
2022-11-16T09:23:25.843Z,42.05
2022-11-16T09:25:54.620Z,40.63
2022-11-16T09:28:22.899Z,40.77
2022-11-16T09:30:51.490Z,41.23
2022-11-16T09:33:19.186Z,41.78
2022-11-16T09:35:46.489Z,41.84
2022-11-16T09:38:20.719Z,41.79
2022-11-16T09:40:54.085Z,40.01
2022-11-16T09:43:44.107Z,41.20
2022-11-16T09:46:24.678Z,41.55
2022-11-16T09:48:56.680Z,40.77
2022-11-16T09:51:30.076Z,40.58
2022-11-16T09:54:05.658Z,40.38
2022-11-16T09:56:37.784Z,40.08
2022-11-16T09:59:18.167Z,39.91
2022-11-16T10:01:52.880Z,38.82
2022-11-16T10:04:31.226Z,39.75
2022-11-16T10:07:05.898Z,39.38
2022-11-16T10:09:36.340Z,38.39
2022-11-16T10:12:23.355Z,39.50
2022-11-16T10:15:17.275Z,39.15
2022-11-16T10:18:03.593Z,39.25
2022-11-16T10:20:49.858Z,38.43
2022-11-16T10:23:31.081Z,38.48
2022-11-16T10:26:16.830Z,38.73
2022-11-16T10:29:15.763Z,38.58
2022-11-16T10:32:03.330Z,38.56
2022-11-16T10:34:43.284Z,38.55
2022-11-16T10:37:14.156Z,39.41
2022-11-16T10:39:41.960Z,40.79
2022-11-16T10:42:19.275Z,40.86
2022-11-16T10:44:53.865Z,39.78
2022-11-16T10:47:30.890Z,41.42
2022-11-16T10:50:04.986Z,42.09
2022-11-16T10:52:32.066Z,42.30
2022-11-16T10:54:59.108Z,41.94
2022-11-16T10:57:54.184Z,42.50
2022-11-16T11:00:46.259Z,41.50
2022-11-16T11:03:14.645Z,41.34
2022-11-16T11:05:52.885Z,41.70
2022-11-16T11:08:28.926Z,42.03
2022-11-16T11:11:02.008Z,41.91
2022-11-16T11:13:30.713Z,42.20
2022-11-16T11:16:15.505Z,41.09
2022-11-16T11:18:42.944Z,42.79
2022-11-16T11:21:18.698Z,42.97
2022-11-16T11:23:49.366Z,42.98
2022-11-16T11:26:36.537Z,42.75
2022-11-16T11:29:27.287Z,44.24
2022-11-16T11:31:59.590Z,43.03
2022-11-16T11:34:30.429Z,42.49
2022-11-16T11:37:01.387Z,44.40
2022-11-16T11:39:35.120Z,43.67
2022-11-16T11:42:23.431Z,43.98
2022-11-16T11:44:57.865Z,44.15
2022-11-16T11:48:00.359Z,44.36
2022-11-16T11:50:43.105Z,44.66
2022-11-16T11:53:28.126Z,44.82
2022-11-16T11:55:58.786Z,43.97
2022-11-16T11:58:31.373Z,43.77
2022-11-16T12:01:25.542Z,43.60
2022-11-16T12:04:23.965Z,44.30
2022-11-16T12:07:03.225Z,43.67
2022-11-16T12:09:44.605Z,44.04
2022-11-16T12:12:28.789Z,43.48
2022-11-16T12:15:26.529Z,43.77
2022-11-16T12:18:08.104Z,43.42
2022-11-16T12:20:51.506Z,42.52
2022-11-16T12:23:37.795Z,43.75
2022-11-16T12:26:14.125Z,43.20
2022-11-16T12:28:58.044Z,42.82
2022-11-16T12:31:53.184Z,42.82
2022-11-16T12:34:39.585Z,42.82
2022-11-16T12:40:00.585Z,42.43
2022-11-16T12:42:40.478Z,41.83
2022-11-16T12:45:45.891Z,41.51
2022-11-16T12:48:59.974Z,42.64
2022-11-16T12:51:48.905Z,40.15
2022-11-16T12:55:19.076Z,41.92
2022-11-16T12:57:52.883Z,41.81
2022-11-16T13:00:20.525Z,42.13
2022-11-16T13:03:08.626Z,42.36
2022-11-16T13:05:54.550Z,42.69
2022-11-16T13:08:41.251Z,43.58
2022-11-16T13:11:15.928Z,42.09
2022-11-16T13:13:51.481Z,42.13
2022-11-16T13:16:22.624Z,42.28
2022-11-16T13:18:52.685Z,42.64
2022-11-16T13:21:30.866Z,42.22
2022-11-16T13:24:21.588Z,42.77
2022-11-16T13:26:57.705Z,43.27
2022-11-16T13:29:34.316Z,41.73
2022-11-16T13:32:14.024Z,42.40
2022-11-16T13:34:42.044Z,43.05
2022-11-16T13:37:43.068Z,43.47
2022-11-16T13:40:22.564Z,42.93
2022-11-16T13:43:05.284Z,42.62
2022-11-16T13:45:37.264Z,42.77
2022-11-16T13:48:17.406Z,41.43
2022-11-16T13:50:51.185Z,40.79
2022-11-16T13:54:17.851Z,38.78
2022-11-16T13:56:28.351Z,38.90
2022-11-16T13:58:58.557Z,38.88
2022-11-16T14:01:26.032Z,39.06
2022-11-16T14:04:31.626Z,36.73
2022-11-16T14:07:00.247Z,38.97
2022-11-16T14:09:48.069Z,38.34
2022-11-16T14:12:54.705Z,40.39
2022-11-16T14:15:28.947Z,39.83
2022-11-16T14:18:00.525Z,40.08
2022-11-16T14:20:53.156Z,40.74
2022-11-16T14:23:35.048Z,41.51
2022-11-16T14:26:18.670Z,40.38
2022-11-16T14:29:07.046Z,41.10
2022-11-16T14:31:51.911Z,41.26
2022-11-16T14:34:23.645Z,40.72
2022-11-16T14:36:51.946Z,40.58
2022-11-16T14:39:33.644Z,39.91
2022-11-16T14:42:05.964Z,40.91
2022-11-16T14:44:38.488Z,40.72
2022-11-16T14:47:23.424Z,40.78
2022-11-16T14:49:51.758Z,40.84
2022-11-16T14:52:27.305Z,39.65
2022-11-16T14:54:58.825Z,40.82
2022-11-16T14:57:26.385Z,41.24
2022-11-16T15:00:09.028Z,41.58
2022-11-16T15:02:39.917Z,41.10
2022-11-16T15:05:07.934Z,40.83
2022-11-16T15:07:35.201Z,41.18
2022-11-16T15:10:02.645Z,41.12
2022-11-16T15:12:41.469Z,41.25
2022-11-16T15:15:15.424Z,41.67
2022-11-16T15:17:46.565Z,40.93
2022-11-16T15:20:19.005Z,40.65
2022-11-16T15:22:48.286Z,41.01
2022-11-16T15:25:28.188Z,41.42
2022-11-16T15:27:57.384Z,41.53
2022-11-16T15:30:27.224Z,41.98
2022-11-16T15:32:56.807Z,40.86
2022-11-16T15:35:28.108Z,40.32
2022-11-16T15:38:03.009Z,40.97
2022-11-16T15:40:31.066Z,40.76
2022-11-16T15:43:01.224Z,41.48
2022-11-16T15:45:31.829Z,41.23
2022-11-16T15:48:03.086Z,41.62
2022-11-16T15:50:30.774Z,41.60
2022-11-16T15:52:58.289Z,41.48
2022-11-16T15:55:33.166Z,41.58
2022-11-16T15:58:13.706Z,41.26
2022-11-16T16:00:42.566Z,40.84
2022-11-16T16:03:22.324Z,41.10
2022-11-16T16:05:50.126Z,41.21
2022-11-16T16:08:29.325Z,41.26
2022-11-16T16:11:10.727Z,41.84
2022-11-16T16:13:40.147Z,41.16
2022-11-16T16:16:27.186Z,41.25
2022-11-16T16:19:00.772Z,40.25
2022-11-16T16:21:42.527Z,41.35
2022-11-16T16:24:31.927Z,41.53
2022-11-16T16:26:59.045Z,42.33
2022-11-16T16:29:27.746Z,41.63
2022-11-16T16:31:56.325Z,42.26
2022-11-16T16:34:25.454Z,42.62
2022-11-16T16:36:53.270Z,42.81
2022-11-16T16:39:20.751Z,42.74
2022-11-16T16:41:48.302Z,43.05
2022-11-16T16:44:16.488Z,43.13
2022-11-16T16:46:43.685Z,43.93
2022-11-16T16:49:11.388Z,43.26
2022-11-16T16:51:40.486Z,43.75
2022-11-16T16:54:09.847Z,43.85
2022-11-16T16:56:37.187Z,44.39
2022-11-16T16:59:04.746Z,44.45
2022-11-16T17:01:32.194Z,44.01
2022-11-16T17:03:59.906Z,44.94
2022-11-16T17:06:27.665Z,44.41
2022-11-16T17:08:57.830Z,44.72
2022-11-16T17:11:26.408Z,44.76
2022-11-16T17:13:54.627Z,44.17
2022-11-16T17:16:22.306Z,43.70
2022-11-16T17:18:54.766Z,44.22
2022-11-16T17:21:23.107Z,44.03
2022-11-16T17:23:51.034Z,43.78
2022-11-16T17:26:21.147Z,43.43
2022-11-16T17:28:49.907Z,43.73
2022-11-16T17:31:18.388Z,43.25
2022-11-16T17:33:46.407Z,43.49
2022-11-16T17:36:15.586Z,43.29
2022-11-16T17:38:44.606Z,43.81
2022-11-16T17:41:15.349Z,43.26
2022-11-16T17:43:47.249Z,43.75
2022-11-16T17:46:17.907Z,43.59
2022-11-16T17:48:48.466Z,43.87
2022-11-16T17:51:19.194Z,43.18
2022-11-16T17:53:47.606Z,43.77
2022-11-16T17:56:18.946Z,43.74
2022-11-16T17:58:50.388Z,44.64
2022-11-16T18:01:19.536Z,44.06
2022-11-16T18:03:47.334Z,43.23
2022-11-16T18:06:17.906Z,43.03
2022-11-16T18:08:45.647Z,43.05
2022-11-16T18:11:14.852Z,43.51
2022-11-16T18:13:42.209Z,43.22
2022-11-16T18:16:13.328Z,43.97
2022-11-16T18:18:41.688Z,44.06
2022-11-16T18:21:10.048Z,43.94
2022-11-16T18:23:38.565Z,44.10
2022-11-16T18:26:08.544Z,43.79
2022-11-16T18:28:36.223Z,44.14
2022-11-16T18:31:05.064Z,43.69
2022-11-16T18:33:36.042Z,43.97
2022-11-16T18:36:04.245Z,43.97
2022-11-16T18:38:31.712Z,43.20
2022-11-16T18:41:07.246Z,44.13
2022-11-16T18:43:35.350Z,43.40
2022-11-16T18:46:02.745Z,43.54
2022-11-16T18:48:30.305Z,43.42
2022-11-16T18:51:04.206Z,43.31
2022-11-16T18:53:33.209Z,43.31
2022-11-16T18:56:00.926Z,43.79
2022-11-16T18:58:50.198Z,43.46
2022-11-16T19:01:17.867Z,43.28
2022-11-16T19:03:45.165Z,43.57
2022-11-16T19:06:13.924Z,43.72
2022-11-16T19:08:41.944Z,43.77
2022-11-16T19:11:11.385Z,44.38
2022-11-16T19:13:39.584Z,44.67
2022-11-16T19:16:07.904Z,44.78
2022-11-16T19:18:35.745Z,45.30
2022-11-16T19:21:04.704Z,44.64
2022-11-16T19:23:37.885Z,44.89
2022-11-16T19:26:06.296Z,45.07
2022-11-16T19:28:36.118Z,45.75
2022-11-16T19:31:11.426Z,45.88
2022-11-16T19:33:39.803Z,45.92
2022-11-16T19:36:08.965Z,45.69
2022-11-16T19:38:38.203Z,45.93
2022-11-16T19:41:06.303Z,46.01
2022-11-16T19:43:34.573Z,46.31
2022-11-16T19:46:03.144Z,44.88
2022-11-16T19:48:31.419Z,44.70
2022-11-16T19:51:04.545Z,44.88
2022-11-16T19:53:31.840Z,44.94
2022-11-16T19:56:00.683Z,45.38
2022-11-16T19:58:28.544Z,45.06
2022-11-16T20:01:01.085Z,45.22
2022-11-16T20:03:28.303Z,45.63
2022-11-16T20:06:05.263Z,45.37
2022-11-16T20:08:32.542Z,45.72
2022-11-16T20:11:01.280Z,45.39
2022-11-16T20:13:28.563Z,44.89
2022-11-16T20:15:55.740Z,45.48
2022-11-16T20:18:22.943Z,45.14
2022-11-16T20:20:50.063Z,45.05
2022-11-16T20:23:17.242Z,45.26
2022-11-16T20:25:44.453Z,45.20
2022-11-16T20:28:13.060Z,56.05
2022-11-16T20:30:45.779Z,48.25
2022-11-16T20:33:13.100Z,44.31
2022-11-16T20:35:40.219Z,42.50
2022-11-16T20:38:07.760Z,41.23
2022-11-16T20:40:34.901Z,39.59
2022-11-16T20:43:02.080Z,38.41
2022-11-16T20:45:32.940Z,39.47
2022-11-16T20:48:00.124Z,40.38
2022-11-16T20:50:27.360Z,41.21
2022-11-16T20:52:54.961Z,41.54
2022-11-16T20:55:22.280Z,42.06
2022-11-16T20:57:49.680Z,42.67
2022-11-16T21:00:18.702Z,43.64
2022-11-16T21:02:47.492Z,42.92
2022-11-16T21:05:15.032Z,43.51
2022-11-16T21:07:42.320Z,44.03
2022-11-16T21:10:10.962Z,43.44
2022-11-16T21:12:42.661Z,43.81
2022-11-16T21:15:11.258Z,44.13
2022-11-16T21:17:38.461Z,42.95
2022-11-16T21:22:56.721Z,44.43
2022-11-16T21:25:24.639Z,43.93
2022-11-16T21:27:52.821Z,44.71
2022-11-16T21:30:20.720Z,44.49
2022-11-16T21:32:48.079Z,44.75
2022-11-16T21:35:17.242Z,44.63
2022-11-16T21:37:44.681Z,44.46
2022-11-16T21:40:12.662Z,44.75
2022-11-16T21:42:39.863Z,44.84
2022-11-16T21:45:08.492Z,45.09
2022-11-16T21:47:35.734Z,44.82
2022-11-16T21:50:32.794Z,44.97
2022-11-16T21:52:51.480Z,44.70
2022-11-16T21:55:19.442Z,44.88
2022-11-16T21:57:46.541Z,44.64
2022-11-16T22:00:16.082Z,44.80
2022-11-16T22:02:43.419Z,44.04
2022-11-16T22:05:10.684Z,44.36
2022-11-16T22:07:40.002Z,44.42
2022-11-16T22:10:11.404Z,43.62
2022-11-16T22:12:39.503Z,43.53
2022-11-16T22:15:08.480Z,43.29
2022-11-16T22:17:35.619Z,43.83
2022-11-16T22:20:02.948Z,43.53
2022-11-16T22:22:30.240Z,43.64
2022-11-16T22:24:57.420Z,44.16
2022-11-16T22:27:26.332Z,43.36
2022-11-16T22:29:53.432Z,43.95
2022-11-16T22:32:20.662Z,43.60
2022-11-16T22:34:48.200Z,43.15
2022-11-16T22:37:15.360Z,43.75
2022-11-16T22:39:43.204Z,44.06
2022-11-16T22:42:10.702Z,44.38
2022-11-16T22:44:39.373Z,43.83
2022-11-16T22:47:06.681Z,43.15
2022-11-16T22:49:33.863Z,43.98
2022-11-16T22:52:01.081Z,41.44
2022-11-16T22:54:28.891Z,42.45
2022-11-16T22:56:56.364Z,42.64
2022-11-16T22:59:23.843Z,42.83
2022-11-16T23:01:52.518Z,43.36
2022-11-16T23:04:20.063Z,43.59
2022-11-16T23:06:47.303Z,43.91
2022-11-16T23:09:14.593Z,43.94
2022-11-16T23:11:41.802Z,43.85
2022-11-16T23:14:12.046Z,44.22
2022-11-16T23:16:40.507Z,44.45
2022-11-16T23:19:11.963Z,44.92
2022-11-16T23:21:39.114Z,45.03
2022-11-16T23:24:09.927Z,45.39
2022-11-16T23:26:37.114Z,45.39
2022-11-16T23:29:08.004Z,45.68
2022-11-16T23:31:35.383Z,45.57
2022-11-16T23:34:02.739Z,46.10
2022-11-16T23:36:31.424Z,45.53
2022-11-16T23:38:58.604Z,46.26
2022-11-16T23:41:25.894Z,45.79
2022-11-16T23:43:53.056Z,45.38
2022-11-16T23:46:20.341Z,46.21
2022-11-16T23:48:47.611Z,45.53
2022-11-16T23:51:14.703Z,45.43
2022-11-16T23:53:43.602Z,44.70
2022-11-16T23:56:10.902Z,43.91
2022-11-16T23:58:38.263Z,44.64
